Time;durP1;ratioP1;P1;durP2;ratioP2;P2;SDS_P1;SDS_P2;PMS_P1;PMS_P2;Temp;Humidity;BMP_temperature;BMP_pressure;BME280_temperature;BME280_humidity;BME280_pressure;Samples;Min_cycle;Max_cycle;Signal;HPM_P1;HPM_P2
2022/11/27 00:01:58;;;;;;;13.38;9.15;;;22.90;55.40;;;;;;5124215;27;20028;-62
2022/11/27 00:04:24;;;;;;;13.40;8.70;;;22.90;55.50;;;;;;5119158;27;20081;-63
2022/11/27 00:06:49;;;;;;;13.32;8.90;;;22.90;55.50;;;;;;5123915;27;20015;-63
2022/11/27 00:09:15;;;;;;;11.98;8.13;;;22.80;55.50;;;;;;5121097;27;20025;-63
2022/11/27 00:11:42;;;;;;;12.43;8.43;;;22.80;55.50;;;;;;5116477;27;20038;-63
2022/11/27 00:14:14;;;;;;;10.77;8.00;;;22.80;55.60;;;;;;5116079;27;20027;-62
2022/11/27 00:16:40;;;;;;;11.35;8.05;;;22.70;55.60;;;;;;5123690;27;20023;-63
2022/11/27 00:19:05;;;;;;;12.35;8.68;;;22.70;55.60;;;;;;5117978;27;20539;-63
2022/11/27 00:21:33;;;;;;;12.48;8.75;;;22.70;55.70;;;;;;5124041;27;20047;-63
2022/11/27 00:24:01;;;;;;;12.32;8.13;;;22.60;55.60;;;;;;5120487;27;20118;-63
2022/11/27 00:26:28;;;;;;;12.65;8.55;;;22.70;55.70;;;;;;5118554;27;20019;-63
2022/11/27 00:28:54;;;;;;;11.35;7.80;;;22.60;55.70;;;;;;5123500;27;20541;-63
2022/11/27 00:31:25;;;;;;;11.55;8.23;;;22.60;55.80;;;;;;5124496;27;20024;-62
2022/11/27 00:33:59;;;;;;;12.35;8.07;;;22.60;56.30;;;;;;5120054;27;20110;-63
2022/11/27 00:36:31;;;;;;;12.13;7.72;;;22.50;55.80;;;;;;5118754;27;20395;-62
2022/11/27 00:38:57;;;;;;;11.15;7.97;;;22.50;55.80;;;;;;5120094;27;20030;-62
2022/11/27 00:41:25;;;;;;;11.40;7.63;;;22.50;55.90;;;;;;5120218;27;20084;-61
2022/11/27 00:43:52;;;;;;;9.80;7.07;;;22.50;55.90;;;;;;5120338;27;20080;-62
2022/11/27 00:46:20;;;;;;;11.18;7.28;;;22.50;55.90;;;;;;5123333;27;20523;-63
2022/11/27 00:48:46;;;;;;;10.95;7.05;;;22.40;55.90;;;;;;5122818;27;20483;-63
2022/11/27 00:51:15;;;;;;;9.52;6.82;;;22.40;55.90;;;;;;5119904;27;20169;-62
2022/11/27 00:53:42;;;;;;;10.05;7.28;;;22.30;55.90;;;;;;5118593;27;20474;-62
2022/11/27 00:56:09;;;;;;;10.52;6.90;;;22.30;56.00;;;;;;5118477;27;20102;-63
2022/11/27 00:58:34;;;;;;;10.15;7.15;;;22.30;56.00;;;;;;5119379;28;20027;-62
2022/11/27 01:01:02;;;;;;;9.77;7.15;;;22.30;56.00;;;;;;5115711;28;20111;-62
2022/11/27 01:03:29;;;;;;;9.55;6.57;;;22.20;56.00;;;;;;5127733;27;20431;-63
2022/11/27 01:05:55;;;;;;;9.48;6.80;;;22.20;56.10;;;;;;5125307;27;20343;-63
2022/11/27 01:08:21;;;;;;;9.75;6.63;;;22.20;56.10;;;;;;5119488;27;20416;-63
2022/11/27 01:10:53;;;;;;;8.32;6.03;;;22.20;56.10;;;;;;5121551;27;20415;-64
2022/11/27 01:13:21;;;;;;;9.73;6.28;;;22.20;56.20;;;;;;5121984;27;20023;-63
2022/11/27 01:15:58;;;;;;;8.25;5.70;;;22.10;56.10;;;;;;5125670;27;20402;-63
2022/11/27 01:18:24;;;;;;;8.60;5.97;;;22.10;56.20;;;;;;5122431;27;20471;-64
2022/11/27 01:20:53;;;;;;;9.60;6.30;;;22.10;56.20;;;;;;5122080;27;20039;-63
2022/11/27 01:23:20;;;;;;;8.60;6.18;;;22.00;56.20;;;;;;5122325;27;20032;-63
2022/11/27 01:25:46;;;;;;;8.55;6.18;;;22.00;56.30;;;;;;5122859;27;20077;-62
2022/11/27 01:28:11;;;;;;;8.63;5.68;;;22.00;56.30;;;;;;5122808;27;20063;-63
2022/11/27 01:30:38;;;;;;;8.00;5.88;;;22.00;56.30;;;;;;5127877;27;20022;-63
2022/11/27 01:33:03;;;;;;;6.97;5.22;;;22.00;56.40;;;;;;5125487;27;20469;-63
2022/11/27 01:35:29;;;;;;;8.07;5.47;;;21.90;56.30;;;;;;5124719;27;20034;-63
2022/11/27 01:37:55;;;;;;;8.32;5.55;;;21.90;56.40;;;;;;5123533;27;20067;-63
2022/11/27 01:40:21;;;;;;;7.35;5.03;;;21.90;56.40;;;;;;5124627;27;20024;-63
2022/11/27 01:42:47;;;;;;;7.85;5.70;;;21.90;56.40;;;;;;5123145;27;20031;-63
2022/11/27 01:45:16;;;;;;;7.45;5.28;;;21.90;56.50;;;;;;5123233;27;20035;-63
2022/11/27 01:47:56;;;;;;;;;;;21.90;56.50;;;;;;5123545;27;20019;-64
2022/11/27 01:50:40;;;;;;;7.78;4.93;;;21.80;56.50;;;;;;5121996;27;20239;-63
2022/11/27 01:53:14;;;;;;;7.38;5.05;;;21.80;56.60;;;;;;5124355;27;20024;-63
2022/11/27 01:55:45;;;;;;;7.18;4.95;;;21.80;56.60;;;;;;5120993;27;20047;-62
2022/11/27 01:58:14;;;;;;;6.63;5.20;;;21.70;56.60;;;;;;5125209;27;20049;-62
2022/11/27 02:00:40;;;;;;;7.20;4.70;;;21.70;56.60;;;;;;5122376;27;20407;-63
2022/11/27 02:03:06;;;;;;;7.55;5.28;;;21.70;56.70;;;;;;5124620;27;20493;-63
2022/11/27 02:05:32;;;;;;;7.22;5.05;;;21.70;56.70;;;;;;5127312;27;20031;-62
2022/11/27 02:08:00;;;;;;;7.32;5.13;;;21.70;56.70;;;;;;5125912;27;20028;-64
2022/11/27 02:10:57;;;;;;;6.57;4.60;;;21.60;56.70;;;;;;5123575;27;20026;-62
2022/11/27 02:13:32;;;;;;;6.53;4.55;;;21.60;56.70;;;;;;5121047;27;20113;-63
2022/11/27 02:16:05;;;;;;;6.00;4.47;;;21.60;56.80;;;;;;5125056;27;20027;-63
2022/11/27 02:18:46;;;;;;;6.68;4.45;;;21.60;56.80;;;;;;5129913;27;20024;-63
2022/11/27 02:21:21;;;;;;;6.53;4.60;;;21.60;56.80;;;;;;5120645;27;20032;-63
2022/11/27 02:24:06;;;;;;;6.95;4.50;;;21.50;56.80;;;;;;5124722;27;20031;-64
2022/11/27 02:26:49;;;;;;;5.75;4.43;;;21.50;56.80;;;;;;5121122;27;20036;-63
2022/11/27 02:29:21;;;;;;;6.10;4.25;;;21.50;56.80;;;;;;5121946;27;20115;-63
2022/11/27 02:32:11;;;;;;;5.85;4.03;;;21.50;56.80;;;;;;5130828;27;20089;-63
2022/11/27 02:35:12;;;;;;;5.82;4.05;;;21.50;56.90;;;;;;5126264;27;20494;-63
2022/11/27 02:37:46;;;;;;;5.78;4.32;;;21.50;56.90;;;;;;5102903;27;20037;-62
2022/11/27 02:40:45;;;;;;;6.22;4.30;;;21.40;56.90;;;;;;5119656;27;20035;-63
2022/11/27 02:43:18;;;;;;;6.38;4.53;;;21.40;56.90;;;;;;5119618;27;20186;-64
2022/11/27 02:45:48;;;;;;;5.80;3.97;;;21.40;56.90;;;;;;5117224;27;20387;-62
2022/11/27 02:48:18;;;;;;;4.72;3.70;;;21.40;57.00;;;;;;5121072;27;20096;-63
2022/11/27 02:50:47;;;;;;;6.20;3.92;;;21.40;57.10;;;;;;5120035;27;20027;-62
2022/11/27 02:53:19;;;;;;;5.40;3.53;;;21.30;57.00;;;;;;5119696;27;20490;-63
2022/11/27 02:55:46;;;;;;;6.10;4.10;;;21.30;57.00;;;;;;5120498;27;20038;-62
2022/11/27 02:58:18;;;;;;;5.78;3.90;;;21.30;57.10;;;;;;5117285;27;20092;-63
2022/11/27 03:00:45;;;;;;;5.78;3.83;;;21.30;57.10;;;;;;5119184;27;20040;-63
2022/11/27 03:03:13;;;;;;;5.70;4.18;;;21.30;57.10;;;;;;5120391;27;20062;-64
2022/11/27 03:05:42;;;;;;;6.45;4.00;;;21.30;57.20;;;;;;5121518;27;20494;-63
2022/11/27 03:08:32;;;;;;;5.63;4.10;;;21.30;57.20;;;;;;5122492;27;20034;-63
2022/11/27 03:11:02;;;;;;;5.28;4.03;;;21.20;57.10;;;;;;5123821;27;20424;-63
2022/11/27 03:13:30;;;;;;;5.95;3.90;;;21.20;57.10;;;;;;5120614;27;20016;-63
2022/11/27 03:16:33;;;;;;;5.57;3.65;;;21.20;57.10;;;;;;5122644;27;20506;-63
2022/11/27 03:19:23;;;;;;;5.20;3.70;;;21.20;57.10;;;;;;5103508;27;20054;-62
2022/11/27 03:21:57;;;;;;;5.35;3.85;;;21.20;57.20;;;;;;5118407;27;20071;-62
2022/11/27 03:24:23;;;;;;;5.10;3.35;;;21.20;57.20;;;;;;5120186;27;20022;-62
2022/11/27 03:26:49;;;;;;;5.63;3.80;;;21.20;57.30;;;;;;5120643;27;20019;-62
2022/11/27 03:29:22;;;;;;;4.80;3.53;;;21.10;57.70;;;;;;5123546;27;20562;-63
2022/11/27 03:31:48;;;;;;;4.63;3.55;;;21.10;57.20;;;;;;5121330;27;20120;-62
2022/11/27 03:34:15;;;;;;;5.22;3.72;;;21.10;57.30;;;;;;5123393;27;20364;-62
2022/11/27 03:36:41;;;;;;;4.68;3.50;;;21.10;57.30;;;;;;5118936;27;20015;-63
2022/11/27 03:39:07;;;;;;;5.07;3.53;;;21.10;57.30;;;;;;5117496;27;20025;-63
2022/11/27 03:42:06;;;;;;;5.53;3.80;;;21.10;57.30;;;;;;5118551;27;20456;-63
2022/11/27 03:44:45;;;;;;;5.53;3.38;;;21.10;57.30;;;;;;5121610;27;20046;-63
2022/11/27 03:47:42;;;;;;;4.90;3.50;;;21.10;57.40;;;;;;5121545;27;20089;-63
2022/11/27 03:50:26;;;;;;;4.88;3.40;;;21.00;57.40;;;;;;5118240;27;20373;-63
2022/11/27 03:53:07;;;;;;;4.90;3.50;;;21.00;57.40;;;;;;5116170;27;20020;-63
2022/11/27 03:55:41;;;;;;;4.47;3.25;;;21.00;57.40;;;;;;5121315;27;20445;-63
2022/11/27 03:58:07;;;;;;;3.88;2.95;;;21.00;57.40;;;;;;5123327;27;20031;-64
2022/11/27 04:00:38;;;;;;;4.68;3.28;;;21.00;57.40;;;;;;5121502;27;20035;-62
2022/11/27 04:03:07;;;;;;;5.45;3.38;;;21.00;57.50;;;;;;5120532;27;20490;-63
2022/11/27 04:05:32;;;;;;;4.45;3.53;;;21.00;57.50;;;;;;5120680;27;20038;-63
2022/11/27 04:07:58;;;;;;;4.57;3.10;;;21.00;57.50;;;;;;5115187;27;20027;-62
2022/11/27 04:10:23;;;;;;;3.88;3.08;;;20.90;57.50;;;;;;5118150;27;20462;-63
2022/11/27 04:12:49;;;;;;;4.50;3.17;;;21.00;57.50;;;;;;5120554;27;20109;-63
2022/11/27 04:15:15;;;;;;;4.25;3.10;;;20.90;57.50;;;;;;5122229;27;20447;-62
2022/11/27 04:17:40;;;;;;;4.55;3.33;;;20.90;57.50;;;;;;5119945;27;20032;-63
2022/11/27 04:20:07;;;;;;;3.85;2.80;;;20.90;57.50;;;;;;5118618;27;20103;-63
2022/11/27 04:22:32;;;;;;;4.72;3.00;;;20.90;57.60;;;;;;5115587;27;20047;-64
2022/11/27 04:24:58;;;;;;;4.47;3.30;;;20.90;57.60;;;;;;5119474;27;20131;-63
2022/11/27 04:27:24;;;;;;;3.42;2.70;;;20.90;57.60;;;;;;5122659;27;20028;-63
2022/11/27 04:29:49;;;;;;;5.45;3.30;;;20.90;57.60;;;;;;5118067;27;20471;-63
2022/11/27 04:32:16;;;;;;;4.95;3.47;;;20.90;57.60;;;;;;5120730;27;20102;-63
2022/11/27 04:34:41;;;;;;;3.75;2.75;;;20.90;57.60;;;;;;5118596;27;20496;-63
2022/11/27 04:37:07;;;;;;;3.97;2.92;;;20.90;57.60;;;;;;5117849;27;20023;-62
2022/11/27 04:39:33;;;;;;;4.57;3.20;;;20.80;57.60;;;;;;5121127;27;20034;-63
2022/11/27 04:41:58;;;;;;;3.80;2.67;;;20.80;57.60;;;;;;5122348;27;20027;-62
2022/11/27 04:44:24;;;;;;;4.22;2.80;;;20.80;57.60;;;;;;5119062;27;20023;-63
2022/11/27 04:46:49;;;;;;;4.40;3.10;;;20.80;58.10;;;;;;5119739;27;20117;-62
2022/11/27 04:49:15;;;;;;;3.83;2.50;;;20.80;57.60;;;;;;5121582;27;20055;-63
2022/11/27 04:51:41;;;;;;;4.03;2.55;;;20.80;57.60;;;;;;5116689;27;20443;-63
2022/11/27 04:54:07;;;;;;;4.70;3.00;;;20.80;57.70;;;;;;5119319;27;20035;-62
2022/11/27 04:56:32;;;;;;;3.80;2.55;;;20.80;57.70;;;;;;5120755;27;20490;-64
2022/11/27 04:58:58;;;;;;;4.30;3.08;;;20.80;57.70;;;;;;5119727;28;20030;-63
2022/11/27 05:01:24;;;;;;;4.07;2.78;;;20.80;57.70;;;;;;5119162;28;20035;-62
2022/11/27 05:03:49;;;;;;;4.43;2.75;;;20.80;57.70;;;;;;5127513;28;20032;-62
2022/11/27 05:06:15;;;;;;;3.83;2.55;;;20.80;57.70;;;;;;5120156;28;20118;-63
2022/11/27 05:08:41;;;;;;;3.90;2.70;;;20.80;57.70;;;;;;5120509;28;20506;-62
2022/11/27 05:11:12;;;;;;;3.67;2.60;;;20.80;57.70;;;;;;5123799;28;20039;-63
2022/11/27 05:13:38;;;;;;;3.65;2.53;;;20.70;57.70;;;;;;5117766;28;20479;-63
2022/11/27 05:16:04;;;;;;;4.10;2.85;;;20.70;57.70;;;;;;5122204;28;20089;-63
2022/11/27 05:18:30;;;;;;;3.67;2.53;;;20.70;57.70;;;;;;5118958;28;20038;-62
2022/11/27 05:21:00;;;;;;;3.72;2.60;;;20.70;57.70;;;;;;5121449;28;20035;-63
2022/11/27 05:23:27;;;;;;;3.63;2.70;;;20.70;57.70;;;;;;5125635;28;20102;-63
2022/11/27 05:25:53;;;;;;;3.70;2.60;;;20.70;57.70;;;;;;5118155;28;20055;-63
2022/11/27 05:28:19;;;;;;;3.42;2.40;;;20.70;57.70;;;;;;5118532;28;20386;-63
2022/11/27 05:30:45;;;;;;;3.42;2.35;;;20.70;57.70;;;;;;5117808;28;20020;-64
2022/11/27 05:33:11;;;;;;;3.72;2.58;;;20.70;57.70;;;;;;5113582;28;20028;-62
2022/11/27 05:35:37;;;;;;;3.72;2.55;;;20.70;57.70;;;;;;5115541;28;20038;-63
2022/11/27 05:38:03;;;;;;;3.53;2.40;;;20.70;57.70;;;;;;5117258;28;20059;-62
2022/11/27 05:40:29;;;;;;;4.00;2.38;;;20.70;57.70;;;;;;5119292;28;20019;-63
2022/11/27 05:42:54;;;;;;;3.28;2.40;;;20.70;57.70;;;;;;5118871;28;20024;-63
2022/11/27 05:45:20;;;;;;;3.65;2.50;;;20.70;57.70;;;;;;5115792;28;20035;-63
2022/11/27 05:47:45;;;;;;;3.28;2.17;;;20.70;57.70;;;;;;5119965;28;20023;-63
2022/11/27 05:50:11;;;;;;;3.72;2.38;;;20.70;57.70;;;;;;5123183;27;20031;-62
2022/11/27 05:52:37;;;;;;;2.90;2.03;;;20.70;57.80;;;;;;5124041;27;20413;-63
2022/11/27 05:55:03;;;;;;;3.13;2.10;;;20.70;57.80;;;;;;5120686;27;20431;-62
2022/11/27 05:57:29;;;;;;;3.22;2.10;;;20.60;57.70;;;;;;5121145;27;20042;-63
2022/11/27 05:59:56;;;;;;;3.08;2.30;;;20.70;57.80;;;;;;5123505;27;20023;-63
2022/11/27 06:02:23;;;;;;;2.90;2.05;;;20.60;57.70;;;;;;5122376;27;20027;-63
2022/11/27 06:04:48;;;;;;;3.25;2.40;;;20.60;57.70;;;;;;5119232;27;20030;-62
2022/11/27 06:07:15;;;;;;;3.72;2.50;;;20.60;57.80;;;;;;5121825;27;20019;-62
2022/11/27 06:09:40;;;;;;;3.45;2.20;;;20.60;57.80;;;;;;5119687;27;20381;-64
2022/11/27 06:12:06;;;;;;;3.00;2.08;;;20.60;57.70;;;;;;5121136;27;20019;-63
2022/11/27 06:14:33;;;;;;;3.05;1.90;;;20.60;57.80;;;;;;5130211;27;20077;-63
2022/11/27 06:17:00;;;;;;;2.90;2.10;;;20.60;57.80;;;;;;5123462;27;20421;-63
2022/11/27 06:19:26;;;;;;;3.10;2.20;;;20.60;57.80;;;;;;5123654;27;20046;-64
2022/11/27 06:21:52;;;;;;;3.03;2.10;;;20.60;57.80;;;;;;5122919;27;20051;-62
2022/11/27 06:24:17;;;;;;;3.45;2.30;;;20.60;57.80;;;;;;5124511;27;20034;-62
2022/11/27 06:26:43;;;;;;;2.70;2.00;;;20.60;57.80;;;;;;5122299;27;20034;-63
2022/11/27 06:29:09;;;;;;;2.70;1.90;;;20.60;57.80;;;;;;5126068;27;20037;-64
2022/11/27 06:31:35;;;;;;;3.25;2.20;;;20.60;57.80;;;;;;5122686;27;20024;-63
2022/11/27 06:34:01;;;;;;;3.55;2.20;;;20.60;57.90;;;;;;5122152;27;20043;-63
2022/11/27 06:36:32;;;;;;;2.78;1.92;;;20.60;57.80;;;;;;5121470;27;20026;-62
2022/11/27 06:38:58;;;;;;;3.03;2.20;;;20.60;57.90;;;;;;5121418;27;20024;-62
2022/11/27 06:41:25;;;;;;;2.85;2.05;;;20.60;57.90;;;;;;5119505;27;20076;-63
2022/11/27 06:43:52;;;;;;;3.17;2.08;;;20.60;57.90;;;;;;5119173;27;20031;-62
2022/11/27 06:46:20;;;;;;;2.90;2.00;;;20.50;57.80;;;;;;5114908;27;20028;-63
2022/11/27 06:48:47;;;;;;;2.65;1.80;;;20.50;57.90;;;;;;5118132;27;20023;-63
2022/11/27 06:51:16;;;;;;;3.03;2.05;;;20.50;57.90;;;;;;5118532;27;20424;-63
2022/11/27 06:53:42;;;;;;;2.78;1.92;;;20.50;57.90;;;;;;5117147;27;20027;-63
2022/11/27 06:56:10;;;;;;;2.83;2.10;;;20.50;57.90;;;;;;5120456;27;20500;-62
2022/11/27 06:58:36;;;;;;;2.85;1.85;;;20.50;57.90;;;;;;5122565;27;20050;-63
2022/11/27 07:01:05;;;;;;;2.65;1.73;;;20.60;58.00;;;;;;5120115;27;20031;-63
2022/11/27 07:03:31;;;;;;;3.17;2.00;;;20.50;57.90;;;;;;5117836;27;20024;-63
2022/11/27 07:06:01;;;;;;;2.72;1.70;;;20.50;58.40;;;;;;5128064;27;20513;-63
2022/11/27 07:08:27;;;;;;;3.42;1.90;;;20.50;57.90;;;;;;5122401;27;20386;-63
2022/11/27 07:10:53;;;;;;;2.90;1.98;;;20.50;57.90;;;;;;5120337;27;20521;-63
2022/11/27 07:13:18;;;;;;;2.75;1.95;;;20.50;58.00;;;;;;5120201;27;20110;-63
2022/11/27 07:15:44;;;;;;;2.67;1.80;;;20.50;57.90;;;;;;5116370;27;20164;-63
2022/11/27 07:18:10;;;;;;;2.80;2.00;;;20.50;57.90;;;;;;5126448;27;20053;-63
2022/11/27 07:20:36;;;;;;;2.53;1.80;;;20.50;58.00;;;;;;5121548;27;20019;-63
2022/11/27 07:23:02;;;;;;;3.00;2.00;;;20.50;58.00;;;;;;5120407;27;20050;-63
2022/11/27 07:25:27;;;;;;;2.83;1.95;;;20.50;58.00;;;;;;5123332;27;20019;-63
2022/11/27 07:27:54;;;;;;;2.75;1.80;;;20.50;58.00;;;;;;5120566;27;20432;-62
2022/11/27 07:30:20;;;;;;;2.55;1.83;;;20.50;58.00;;;;;;5118154;27;20034;-64
2022/11/27 07:32:46;;;;;;;2.85;2.00;;;20.50;58.00;;;;;;5120219;27;20485;-63
2022/11/27 07:35:11;;;;;;;2.72;1.98;;;20.50;58.00;;;;;;5120480;27;20540;-63
2022/11/27 07:37:37;;;;;;;2.65;1.92;;;20.50;58.00;;;;;;5121327;27;20037;-63
2022/11/27 07:40:03;;;;;;;2.53;1.65;;;20.40;57.90;;;;;;5122433;27;20076;-63
2022/11/27 07:42:29;;;;;;;3.42;2.13;;;20.50;58.00;;;;;;5122397;27;20363;-63
2022/11/27 07:44:54;;;;;;;2.60;1.77;;;20.50;58.00;;;;;;5118996;27;20029;-63
2022/11/27 07:47:20;;;;;;;3.00;2.00;;;20.40;58.50;;;;;;5117312;27;20024;-63
2022/11/27 07:49:46;;;;;;;2.67;1.80;;;20.50;58.00;;;;;;5115748;27;20035;-64
2022/11/27 07:52:11;;;;;;;2.72;1.90;;;20.40;58.00;;;;;;5119500;27;20034;-63
2022/11/27 07:54:38;;;;;;;3.03;1.90;;;20.40;58.00;;;;;;5121736;27;20038;-64
2022/11/27 07:57:04;;;;;;;2.70;1.77;;;20.40;58.00;;;;;;5124772;27;20382;-64
2022/11/27 07:59:29;;;;;;;2.97;1.98;;;20.40;58.10;;;;;;5119128;27;20034;-63
2022/11/27 08:01:55;;;;;;;2.35;1.50;;;20.40;58.00;;;;;;5118860;27;20035;-64
2022/11/27 08:04:20;;;;;;;2.42;1.63;;;20.40;58.10;;;;;;5119024;27;20039;-63
2022/11/27 08:06:48;;;;;;;2.75;1.80;;;20.40;58.00;;;;;;5119596;27;20038;-63
2022/11/27 08:09:14;;;;;;;2.40;1.83;;;20.40;58.10;;;;;;5120224;27;20019;-63
2022/11/27 08:11:39;;;;;;;2.70;1.95;;;20.40;58.00;;;;;;5123207;27;20107;-64
2022/11/27 08:14:06;;;;;;;2.80;1.90;;;20.40;58.10;;;;;;5118999;27;20030;-63
2022/11/27 08:16:34;;;;;;;2.55;1.90;;;20.40;58.10;;;;;;5123952;27;20035;-64
2022/11/27 08:19:00;;;;;;;2.58;1.70;;;20.40;58.10;;;;;;5117643;27;20035;-63
2022/11/27 08:21:26;;;;;;;2.65;1.73;;;20.40;58.10;;;;;;5120995;27;20042;-64
2022/11/27 08:23:52;;;;;;;2.28;1.50;;;20.30;58.00;;;;;;5119087;27;20486;-63
2022/11/27 08:26:19;;;;;;;2.80;1.90;;;20.40;58.10;;;;;;5117836;27;20031;-63
2022/11/27 08:28:45;;;;;;;2.80;1.63;;;20.40;58.10;;;;;;5116974;27;20030;-64
2022/11/27 08:31:12;;;;;;;2.45;1.50;;;20.30;58.10;;;;;;5118352;27;20011;-63
2022/11/27 08:33:38;;;;;;;2.67;1.60;;;20.30;58.10;;;;;;5121459;27;20478;-63
2022/11/27 08:36:04;;;;;;;2.75;1.88;;;20.30;58.10;;;;;;5119456;27;20058;-64
2022/11/27 08:38:30;;;;;;;2.58;1.60;;;20.30;58.10;;;;;;5118546;27;20789;-63
2022/11/27 08:40:58;;;;;;;2.95;1.77;;;20.30;58.10;;;;;;5119666;27;20037;-64
2022/11/27 08:43:24;;;;;;;3.55;2.00;;;20.30;58.10;;;;;;5118193;27;20501;-63
2022/11/27 08:45:50;;;;;;;3.78;1.80;;;20.30;58.10;;;;;;5121674;27;20023;-63
2022/11/27 08:48:16;;;;;;;2.60;1.75;;;20.30;58.10;;;;;;5119661;27;20034;-64
2022/11/27 08:50:42;;;;;;;2.55;1.50;;;20.30;58.10;;;;;;5120804;27;20032;-64
2022/11/27 08:53:08;;;;;;;2.00;1.40;;;20.30;58.10;;;;;;5122967;27;20026;-67
2022/11/27 08:55:33;;;;;;;2.60;1.60;;;20.30;58.10;;;;;;5121416;27;20043;-67
2022/11/27 08:57:59;;;;;;;2.38;1.52;;;20.30;58.10;;;;;;5116708;28;20023;-67
2022/11/27 09:00:25;;;;;;;2.55;1.60;;;20.30;58.10;;;;;;5117301;28;20020;-67
2022/11/27 09:02:50;;;;;;;2.00;1.33;;;20.30;58.10;;;;;;5119099;28;20070;-66
2022/11/27 09:05:16;;;;;;;2.38;1.60;;;20.30;58.10;;;;;;5119525;28;20609;-67
2022/11/27 09:07:41;;;;;;;2.03;1.50;;;20.30;58.20;;;;;;5124111;28;20027;-66
2022/11/27 09:10:08;;;;;;;2.20;1.60;;;20.30;58.20;;;;;;5123493;28;20030;-66
2022/11/27 09:12:34;;;;;;;2.20;1.60;;;20.30;58.20;;;;;;5122074;28;20020;-66
2022/11/27 09:15:00;;;;;;;2.38;1.65;;;20.30;58.20;;;;;;5119308;28;20062;-66
2022/11/27 09:17:25;;;;;;;2.30;1.48;;;20.30;58.20;;;;;;5123628;28;20023;-66
2022/11/27 09:19:51;;;;;;;2.30;1.50;;;20.20;58.20;;;;;;5117558;28;20422;-65
2022/11/27 09:22:17;;;;;;;2.20;1.40;;;20.20;58.20;;;;;;5123560;28;20037;-66
2022/11/27 09:24:43;;;;;;;2.00;1.40;;;20.20;58.20;;;;;;5118397;27;20390;-66
2022/11/27 09:27:09;;;;;;;2.25;1.60;;;20.20;58.20;;;;;;5125578;27;20027;-65
2022/11/27 09:29:35;;;;;;;1.98;1.50;;;20.20;58.20;;;;;;5129015;27;20378;-66
2022/11/27 09:32:01;;;;;;;2.15;1.50;;;20.20;58.20;;;;;;5121944;27;20036;-66
2022/11/27 09:34:26;;;;;;;3.22;1.77;;;20.20;58.20;;;;;;5122012;27;20023;-66
2022/11/27 09:36:52;;;;;;;2.33;1.60;;;20.20;58.30;;;;;;5121838;27;20027;-66
2022/11/27 09:39:21;;;;;;;2.15;1.60;;;20.20;58.30;;;;;;5120974;27;20019;-66
2022/11/27 09:42:03;;;;;;;2.58;1.77;;;20.20;58.30;;;;;;5120406;27;20470;-65
2022/11/27 09:44:47;;;;;;;2.45;1.58;;;20.20;58.30;;;;;;5121468;27;20478;-68
2022/11/27 09:47:19;;;;;;;2.25;1.45;;;20.20;58.30;;;;;;5123884;27;20098;-66
2022/11/27 09:49:59;;;;;;;2.08;1.40;;;20.20;58.30;;;;;;5125110;27;20023;-65
2022/11/27 09:52:37;;;;;;;2.30;1.40;;;20.20;58.30;;;;;;5129205;27;20034;-65
2022/11/27 09:55:13;;;;;;;1.97;1.40;;;20.20;58.30;;;;;;5121322;27;20035;-65
2022/11/27 09:57:40;;;;;;;2.10;1.25;;;20.20;58.30;;;;;;5116988;27;20027;-65
2022/11/27 10:00:26;;;;;;;2.05;1.40;;;20.10;58.30;;;;;;5118921;27;20465;-66
2022/11/27 10:02:53;;;;;;;2.08;1.40;;;20.10;58.30;;;;;;5115132;27;20075;-66
2022/11/27 10:05:27;;;;;;;2.30;1.50;;;20.10;58.30;;;;;;5121029;27;20023;-66
2022/11/27 10:08:14;;;;;;;1.92;1.40;;;20.10;58.30;;;;;;5120707;27;20544;-65
2022/11/27 10:10:55;;;;;;;2.75;1.48;;;20.10;58.30;;;;;;5120783;27;20097;-65
2022/11/27 10:13:43;;;;;;;1.77;1.30;;;20.10;58.30;;;;;;5121726;27;20197;-66
2022/11/27 10:16:16;;;;;;;2.17;1.42;;;20.10;58.40;;;;;;5120482;27;20055;-65
2022/11/27 10:19:07;;;;;;;2.13;1.33;;;20.10;58.40;;;;;;5121563;27;20023;-67
2022/11/27 10:21:48;;;;;;;2.03;1.40;;;20.10;58.40;;;;;;5122116;27;20571;-66
2022/11/27 10:24:36;;;;;;;2.00;1.30;;;20.10;58.40;;;;;;5121980;27;20489;-66
2022/11/27 10:27:09;;;;;;;2.33;1.45;;;20.10;58.40;;;;;;5119381;27;20543;-67
2022/11/27 10:29:42;;;;;;;2.17;1.60;;;20.10;58.40;;;;;;5123169;27;20023;-66
2022/11/27 10:32:45;;;;;;;2.10;1.40;;;20.10;58.40;;;;;;5117582;27;20012;-66
2022/11/27 10:35:18;;;;;;;2.22;1.33;;;20.10;58.50;;;;;;5067547;28;20440;-66
2022/11/27 10:38:00;;;;;;;2.00;1.30;;;20.10;58.40;;;;;;5119092;27;20450;-67
2022/11/27 10:41:10;;;;;;;2.22;1.40;;;20.10;58.50;;;;;;5118515;27;20039;-66
2022/11/27 10:43:35;;;;;;;2.20;1.70;;;20.00;58.40;;;;;;5108135;27;20043;-66
2022/11/27 10:46:13;;;;;;;1.83;1.30;;;20.10;58.40;;;;;;5118218;27;20360;-66
2022/11/27 10:48:39;;;;;;;1.90;1.30;;;20.10;58.50;;;;;;5121617;27;20027;-66
2022/11/27 10:51:19;;;;;;;2.10;1.45;;;20.10;58.50;;;;;;5128385;27;20122;-66
2022/11/27 10:53:49;;;;;;;2.22;1.40;;;20.10;58.50;;;;;;5119755;27;20023;-66
2022/11/27 10:56:18;;;;;;;2.00;1.40;;;20.00;58.40;;;;;;5120246;27;20175;-67
2022/11/27 10:59:03;;;;;;;1.90;1.40;;;20.00;58.40;;;;;;5122553;27;20043;-66
2022/11/27 11:01:45;;;;;;;1.75;1.30;;;20.00;58.40;;;;;;5123505;27;20288;-68
2022/11/27 11:04:13;;;;;;;1.90;1.20;;;20.00;58.50;;;;;;5117638;27;20140;-66
2022/11/27 11:06:43;;;;;;;1.88;1.40;;;20.00;58.50;;;;;;5118796;27;20029;-67
2022/11/27 11:09:21;;;;;;;2.28;1.20;;;20.00;58.50;;;;;;5121924;27;20029;-65
2022/11/27 11:11:47;;;;;;;1.77;1.38;;;20.00;58.50;;;;;;5126223;27;20514;-66
2022/11/27 11:14:22;;;;;;;2.30;1.50;;;20.00;58.50;;;;;;5121075;27;20031;-66
2022/11/27 11:16:49;;;;;;;1.90;1.25;;;20.00;59.00;;;;;;5118335;27;20028;-66
2022/11/27 11:19:31;;;;;;;2.25;1.50;;;20.00;58.50;;;;;;5120298;27;20058;-66
2022/11/27 11:22:02;;;;;;;2.58;1.55;;;20.00;58.60;;;;;;5123644;27;20478;-65
2022/11/27 11:24:34;;;;;;;1.65;1.30;;;20.00;58.60;;;;;;5118504;27;20462;-67
2022/11/27 11:27:17;;;;;;;1.90;1.33;;;20.00;58.60;;;;;;5119008;27;20463;-66
2022/11/27 11:29:50;;;;;;;1.75;1.35;;;20.00;58.60;;;;;;5120536;27;20098;-66
2022/11/27 11:32:35;;;;;;;1.75;1.30;;;20.00;58.60;;;;;;5119286;27;20050;-66
2022/11/27 11:35:22;;;;;;;2.22;1.42;;;20.00;58.70;;;;;;5119081;27;20031;-66
2022/11/27 11:37:47;;;;;;;2.25;1.30;;;20.00;58.70;;;;;;5122371;27;20038;-65
2022/11/27 11:40:13;;;;;;;1.90;1.40;;;20.00;58.70;;;;;;5122499;27;20028;-66
2022/11/27 11:42:57;;;;;;;2.42;1.30;;;20.00;58.70;;;;;;5117082;27;20069;-65
2022/11/27 11:45:24;;;;;;;2.30;1.42;;;20.00;58.70;;;;;;5123060;27;20473;-65
2022/11/27 11:47:52;;;;;;;2.58;1.50;;;20.00;58.70;;;;;;5117334;27;20582;-66
2022/11/27 11:50:39;;;;;;;2.50;1.58;;;20.00;58.70;;;;;;5120093;27;20028;-66
2022/11/27 11:53:22;;;;;;;2.08;1.50;;;19.90;58.70;;;;;;5116496;27;20072;-66
2022/11/27 11:56:07;;;;;;;2.90;1.40;;;19.90;58.70;;;;;;5118020;27;20507;-65
2022/11/27 11:59:07;;;;;;;2.22;1.45;;;19.90;58.70;;;;;;5119434;27;20490;-65
2022/11/27 12:01:57;;;;;;;2.03;1.40;;;19.90;58.70;;;;;;5113616;27;20553;-66
2022/11/27 12:04:51;;;;;;;2.28;1.50;;;20.00;58.80;;;;;;5123183;27;20062;-67
2022/11/27 12:07:33;;;;;;;2.40;1.50;;;19.90;58.80;;;;;;5120454;27;20051;-68
2022/11/27 12:10:17;;;;;;;2.65;1.60;;;20.00;58.90;;;;;;5117668;27;20031;-67
2022/11/27 12:13:04;;;;;;;2.70;1.73;;;20.00;58.80;;;;;;5121789;27;20031;-67
2022/11/27 12:15:37;;;;;;;2.10;1.48;;;20.10;58.70;;;;;;5119096;27;20023;-68
2022/11/27 12:18:41;;;;;;;2.53;1.50;;;20.10;58.60;;;;;;5116940;27;20055;-66
2022/11/27 12:21:14;;;;;;;2.85;1.52;;;20.20;58.60;;;;;;5114941;27;20066;-67
2022/11/27 12:24:17;;;;;;;1.75;1.27;;;20.20;58.50;;;;;;5118238;27;20042;-67
2022/11/27 12:27:11;;;;;;;2.15;1.30;;;20.30;58.40;;;;;;5112398;27;20491;-66
2022/11/27 12:29:59;;;;;;;2.13;1.25;;;20.30;58.40;;;;;;5116401;27;20106;-68
2022/11/27 12:33:14;;;;;;;2.28;1.60;;;20.30;58.30;;;;;;5119175;27;20034;-67
2022/11/27 12:35:50;;;;;;;2.42;1.30;;;20.40;58.70;;;;;;5015812;27;20048;-66
2022/11/27 12:38:39;;;;;;;2.42;1.60;;;20.40;58.10;;;;;;5103979;27;20037;-67
2022/11/27 12:41:44;;;;;;;2.20;1.40;;;20.50;58.00;;;;;;5059788;28;20040;-67
2022/11/27 12:44:51;;;;;;;1.90;1.30;;;20.50;57.90;;;;;;5061995;28;20048;-66
2022/11/27 12:47:26;;;;;;;2.17;1.30;;;20.50;57.80;;;;;;5057266;28;20563;-67
2022/11/27 12:49:59;;;;;;;2.45;1.77;;;20.50;57.80;;;;;;5066008;28;20399;-67
2022/11/27 12:52:33;;;;;;;2.78;1.42;;;20.60;57.70;;;;;;5062646;28;20471;-66
2022/11/27 12:55:11;;;;;;;2.33;1.55;;;20.60;57.70;;;;;;5076726;28;20081;-67
2022/11/27 12:57:44;;;;;;;2.10;1.50;;;20.60;57.60;;;;;;5066717;28;92551;-67
2022/11/27 13:00:22;;;;;;;3.50;2.20;;;20.70;57.50;;;;;;5077248;28;20384;-67
2022/11/27 13:02:47;;;;;;;3.80;2.10;;;20.70;57.50;;;;;;5077647;28;20104;-67
2022/11/27 13:05:19;;;;;;;3.40;2.33;;;20.70;57.40;;;;;;5075953;28;20066;-67
2022/11/27 13:07:59;;;;;;;3.17;2.42;;;20.70;57.40;;;;;;5079045;28;20021;-67